sensor_id;sensor_type;location;lat;lon;timestamp;P1;durP1;ratioP1;P2;durP2;ratioP2
14247;SDS011;7208;49.826;6.004;2023-01-28T00:01:10;4.63;;;4.27;;
14247;SDS011;7208;49.826;6.004;2023-01-28T00:03:36;4.43;;;4.03;;
14247;SDS011;7208;49.826;6.004;2023-01-28T00:06:04;5.00;;;4.50;;
14247;SDS011;7208;49.826;6.004;2023-01-28T00:08:31;4.67;;;4.20;;
14247;SDS011;7208;49.826;6.004;2023-01-28T00:11:01;6.27;;;4.70;;
14247;SDS011;7208;49.826;6.004;2023-01-28T00:13:27;4.70;;;4.30;;
14247;SDS011;7208;49.826;6.004;2023-01-28T00:15:57;5.63;;;5.13;;
14247;SDS011;7208;49.826;6.004;2023-01-28T00:18:24;4.63;;;4.20;;
14247;SDS011;7208;49.826;6.004;2023-01-28T00:23:23;5.00;;;4.57;;
14247;SDS011;7208;49.826;6.004;2023-01-28T00:25:49;4.57;;;4.17;;
14247;SDS011;7208;49.826;6.004;2023-01-28T00:28:15;4.30;;;4.00;;
14247;SDS011;7208;49.826;6.004;2023-01-28T00:30:41;4.60;;;4.20;;
14247;SDS011;7208;49.826;6.004;2023-01-28T00:33:07;4.20;;;3.90;;
14247;SDS011;7208;49.826;6.004;2023-01-28T00:35:33;4.27;;;3.97;;
14247;SDS011;7208;49.826;6.004;2023-01-28T00:37:59;4.67;;;4.30;;
14247;SDS011;7208;49.826;6.004;2023-01-28T00:40:28;4.63;;;4.23;;
14247;SDS011;7208;49.826;6.004;2023-01-28T00:42:54;5.00;;;4.60;;
14247;SDS011;7208;49.826;6.004;2023-01-28T00:45:20;5.07;;;4.57;;
14247;SDS011;7208;49.826;6.004;2023-01-28T00:47:46;4.07;;;3.73;;
14247;SDS011;7208;49.826;6.004;2023-01-28T00:50:12;5.50;;;5.00;;
14247;SDS011;7208;49.826;6.004;2023-01-28T00:52:38;4.57;;;4.17;;
14247;SDS011;7208;49.826;6.004;2023-01-28T00:55:05;5.43;;;5.00;;
14247;SDS011;7208;49.826;6.004;2023-01-28T00:57:31;5.70;;;5.20;;
14247;SDS011;7208;49.826;6.004;2023-01-28T00:59:58;5.17;;;4.70;;
14247;SDS011;7208;49.826;6.004;2023-01-28T01:02:24;5.43;;;4.93;;
14247;SDS011;7208;49.826;6.004;2023-01-28T01:04:51;5.50;;;4.90;;
14247;SDS011;7208;49.826;6.004;2023-01-28T01:07:23;6.37;;;5.07;;
14247;SDS011;7208;49.826;6.004;2023-01-28T01:09:57;5.93;;;5.37;;
14247;SDS011;7208;49.826;6.004;2023-01-28T01:12:24;4.90;;;4.30;;
14247;SDS011;7208;49.826;6.004;2023-01-28T01:14:50;4.83;;;4.43;;
14247;SDS011;7208;49.826;6.004;2023-01-28T01:17:16;5.50;;;5.00;;
14247;SDS011;7208;49.826;6.004;2023-01-28T01:19:42;5.30;;;4.80;;
14247;SDS011;7208;49.826;6.004;2023-01-28T01:22:09;5.60;;;5.10;;
14247;SDS011;7208;49.826;6.004;2023-01-28T01:24:35;6.00;;;5.47;;
14247;SDS011;7208;49.826;6.004;2023-01-28T01:27:01;5.40;;;4.90;;
14247;SDS011;7208;49.826;6.004;2023-01-28T01:29:27;5.67;;;5.17;;
14247;SDS011;7208;49.826;6.004;2023-01-28T01:31:53;5.93;;;5.43;;
14247;SDS011;7208;49.826;6.004;2023-01-28T01:34:19;5.13;;;4.63;;
14247;SDS011;7208;49.826;6.004;2023-01-28T01:36:45;5.37;;;4.87;;
14247;SDS011;7208;49.826;6.004;2023-01-28T01:39:11;5.87;;;5.37;;
14247;SDS011;7208;49.826;6.004;2023-01-28T01:41:37;5.47;;;4.97;;
14247;SDS011;7208;49.826;6.004;2023-01-28T01:44:04;6.73;;;5.53;;
14247;SDS011;7208;49.826;6.004;2023-01-28T01:48:57;6.43;;;5.83;;
14247;SDS011;7208;49.826;6.004;2023-01-28T01:51:29;5.67;;;5.17;;
14247;SDS011;7208;49.826;6.004;2023-01-28T01:53:56;6.37;;;5.77;;
14247;SDS011;7208;49.826;6.004;2023-01-28T01:56:24;5.57;;;4.97;;
14247;SDS011;7208;49.826;6.004;2023-01-28T01:58:52;6.03;;;5.43;;
14247;SDS011;7208;49.826;6.004;2023-01-28T02:01:19;5.67;;;5.13;;
14247;SDS011;7208;49.826;6.004;2023-01-28T02:03:54;5.47;;;5.03;;
14247;SDS011;7208;49.826;6.004;2023-01-28T02:06:21;5.57;;;5.07;;
14247;SDS011;7208;49.826;6.004;2023-01-28T02:08:47;6.73;;;5.40;;
14247;SDS011;7208;49.826;6.004;2023-01-28T02:11:13;6.63;;;5.97;;
14247;SDS011;7208;49.826;6.004;2023-01-28T02:13:43;5.87;;;5.27;;
14247;SDS011;7208;49.826;6.004;2023-01-28T02:16:12;5.80;;;5.30;;
14247;SDS011;7208;49.826;6.004;2023-01-28T02:18:38;5.77;;;5.27;;
14247;SDS011;7208;49.826;6.004;2023-01-28T02:26:14;5.33;;;4.83;;
14247;SDS011;7208;49.826;6.004;2023-01-28T02:28:47;5.83;;;5.23;;
14247;SDS011;7208;49.826;6.004;2023-01-28T02:31:20;5.97;;;5.47;;
14247;SDS011;7208;49.826;6.004;2023-01-28T02:33:55;5.80;;;5.20;;
14247;SDS011;7208;49.826;6.004;2023-01-28T02:38:49;5.77;;;5.17;;
14247;SDS011;7208;49.826;6.004;2023-01-28T02:41:40;6.20;;;5.43;;
14247;SDS011;7208;49.826;6.004;2023-01-28T02:44:04;5.73;;;5.17;;
14247;SDS011;7208;49.826;6.004;2023-01-28T02:49:15;6.23;;;5.63;;
14247;SDS011;7208;49.826;6.004;2023-01-28T02:51:47;5.53;;;4.60;;
14247;SDS011;7208;49.826;6.004;2023-01-28T02:54:25;4.87;;;4.37;;
14247;SDS011;7208;49.826;6.004;2023-01-28T02:59:29;5.27;;;4.77;;
14247;SDS011;7208;49.826;6.004;2023-01-28T03:04:47;5.23;;;4.73;;
14247;SDS011;7208;49.826;6.004;2023-01-28T03:07:15;5.23;;;4.77;;
14247;SDS011;7208;49.826;6.004;2023-01-28T03:09:42;5.30;;;4.80;;
14247;SDS011;7208;49.826;6.004;2023-01-28T03:12:15;5.57;;;5.07;;
14247;SDS011;7208;49.826;6.004;2023-01-28T03:15:03;6.27;;;5.23;;
14247;SDS011;7208;49.826;6.004;2023-01-28T03:20:46;4.83;;;4.43;;
14247;SDS011;7208;49.826;6.004;2023-01-28T03:23:36;5.73;;;5.23;;
14247;SDS011;7208;49.826;6.004;2023-01-28T03:26:22;5.10;;;4.70;;
14247;SDS011;7208;49.826;6.004;2023-01-28T03:29:09;5.20;;;4.70;;
14247;SDS011;7208;49.826;6.004;2023-01-28T03:31:56;4.27;;;3.87;;
14247;SDS011;7208;49.826;6.004;2023-01-28T03:34:41;5.10;;;4.60;;
14247;SDS011;7208;49.826;6.004;2023-01-28T03:37:26;5.00;;;4.50;;
14247;SDS011;7208;49.826;6.004;2023-01-28T03:39:54;4.93;;;4.53;;
14247;SDS011;7208;49.826;6.004;2023-01-28T03:42:22;4.57;;;4.17;;
14247;SDS011;7208;49.826;6.004;2023-01-28T03:44:48;4.30;;;3.93;;
14247;SDS011;7208;49.826;6.004;2023-01-28T03:47:27;5.27;;;4.50;;
14247;SDS011;7208;49.826;6.004;2023-01-28T03:49:54;5.50;;;5.00;;
14247;SDS011;7208;49.826;6.004;2023-01-28T03:52:21;5.63;;;5.13;;
14247;SDS011;7208;49.826;6.004;2023-01-28T03:54:48;4.53;;;4.13;;
14247;SDS011;7208;49.826;6.004;2023-01-28T03:57:17;4.80;;;4.40;;
14247;SDS011;7208;49.826;6.004;2023-01-28T03:59:43;4.40;;;4.00;;
14247;SDS011;7208;49.826;6.004;2023-01-28T04:02:12;4.83;;;4.43;;
14247;SDS011;7208;49.826;6.004;2023-01-28T04:04:39;4.60;;;4.20;;
14247;SDS011;7208;49.826;6.004;2023-01-28T04:07:07;5.73;;;5.10;;
14247;SDS011;7208;49.826;6.004;2023-01-28T04:09:34;4.83;;;4.40;;
14247;SDS011;7208;49.826;6.004;2023-01-28T04:12:00;5.47;;;5.03;;
14247;SDS011;7208;49.826;6.004;2023-01-28T04:14:26;5.20;;;4.70;;
14247;SDS011;7208;49.826;6.004;2023-01-28T04:16:53;5.23;;;4.73;;
14247;SDS011;7208;49.826;6.004;2023-01-28T04:19:19;6.00;;;5.50;;
14247;SDS011;7208;49.826;6.004;2023-01-28T04:21:45;5.33;;;4.83;;
14247;SDS011;7208;49.826;6.004;2023-01-28T04:24:11;5.00;;;4.60;;
14247;SDS011;7208;49.826;6.004;2023-01-28T04:26:38;4.87;;;4.43;;
14247;SDS011;7208;49.826;6.004;2023-01-28T04:29:04;6.13;;;5.13;;
14247;SDS011;7208;49.826;6.004;2023-01-28T04:31:30;5.10;;;4.60;;
14247;SDS011;7208;49.826;6.004;2023-01-28T04:33:56;5.50;;;4.60;;
14247;SDS011;7208;49.826;6.004;2023-01-28T04:36:22;4.97;;;4.47;;
14247;SDS011;7208;49.826;6.004;2023-01-28T04:38:48;5.10;;;4.60;;
14247;SDS011;7208;49.826;6.004;2023-01-28T04:41:14;4.63;;;4.23;;
14247;SDS011;7208;49.826;6.004;2023-01-28T04:43:40;5.20;;;4.70;;
14247;SDS011;7208;49.826;6.004;2023-01-28T04:46:06;6.47;;;5.87;;
14247;SDS011;7208;49.826;6.004;2023-01-28T04:48:33;5.67;;;5.17;;
14247;SDS011;7208;49.826;6.004;2023-01-28T04:51:00;4.73;;;4.33;;
14247;SDS011;7208;49.826;6.004;2023-01-28T04:53:26;5.03;;;4.53;;
14247;SDS011;7208;49.826;6.004;2023-01-28T04:55:52;5.17;;;4.67;;
14247;SDS011;7208;49.826;6.004;2023-01-28T04:58:18;4.53;;;4.13;;
14247;SDS011;7208;49.826;6.004;2023-01-28T05:00:44;5.20;;;4.70;;
14247;SDS011;7208;49.826;6.004;2023-01-28T05:03:10;6.13;;;5.53;;
14247;SDS011;7208;49.826;6.004;2023-01-28T05:05:36;5.17;;;4.67;;
14247;SDS011;7208;49.826;6.004;2023-01-28T05:08:02;5.97;;;5.37;;
14247;SDS011;7208;49.826;6.004;2023-01-28T05:10:28;7.00;;;5.63;;
14247;SDS011;7208;49.826;6.004;2023-01-28T05:12:54;5.87;;;5.30;;
14247;SDS011;7208;49.826;6.004;2023-01-28T05:15:20;6.00;;;5.20;;
14247;SDS011;7208;49.826;6.004;2023-01-28T05:17:47;5.93;;;5.43;;
14247;SDS011;7208;49.826;6.004;2023-01-28T05:20:13;6.20;;;5.60;;
14247;SDS011;7208;49.826;6.004;2023-01-28T05:22:39;6.03;;;5.50;;
14247;SDS011;7208;49.826;6.004;2023-01-28T05:25:06;6.17;;;5.57;;
14247;SDS011;7208;49.826;6.004;2023-01-28T05:27:32;6.27;;;5.67;;
14247;SDS011;7208;49.826;6.004;2023-01-28T05:29:58;6.17;;;5.43;;
14247;SDS011;7208;49.826;6.004;2023-01-28T05:32:25;6.50;;;5.90;;
14247;SDS011;7208;49.826;6.004;2023-01-28T05:34:51;6.73;;;6.03;;
14247;SDS011;7208;49.826;6.004;2023-01-28T05:37:17;5.83;;;5.33;;
14247;SDS011;7208;49.826;6.004;2023-01-28T05:39:43;5.70;;;5.10;;
14247;SDS011;7208;49.826;6.004;2023-01-28T05:42:09;6.50;;;5.90;;
14247;SDS011;7208;49.826;6.004;2023-01-28T05:44:35;7.20;;;5.30;;
14247;SDS011;7208;49.826;6.004;2023-01-28T05:47:02;6.60;;;6.00;;
14247;SDS011;7208;49.826;6.004;2023-01-28T05:49:28;5.70;;;5.10;;
14247;SDS011;7208;49.826;6.004;2023-01-28T05:51:54;6.53;;;5.67;;
14247;SDS011;7208;49.826;6.004;2023-01-28T05:54:20;6.60;;;5.97;;
14247;SDS011;7208;49.826;6.004;2023-01-28T05:56:46;7.37;;;5.53;;
14247;SDS011;7208;49.826;6.004;2023-01-28T05:59:12;6.03;;;5.43;;
14247;SDS011;7208;49.826;6.004;2023-01-28T06:01:38;6.73;;;6.13;;
14247;SDS011;7208;49.826;6.004;2023-01-28T06:04:05;7.47;;;6.17;;
14247;SDS011;7208;49.826;6.004;2023-01-28T06:06:31;5.47;;;4.97;;
14247;SDS011;7208;49.826;6.004;2023-01-28T06:08:57;5.87;;;5.27;;
14247;SDS011;7208;49.826;6.004;2023-01-28T06:11:23;6.40;;;5.80;;
14247;SDS011;7208;49.826;6.004;2023-01-28T06:13:49;6.07;;;5.47;;
14247;SDS011;7208;49.826;6.004;2023-01-28T06:16:15;5.57;;;5.07;;
14247;SDS011;7208;49.826;6.004;2023-01-28T06:18:41;5.30;;;4.80;;
14247;SDS011;7208;49.826;6.004;2023-01-28T06:21:08;5.67;;;5.10;;
14247;SDS011;7208;49.826;6.004;2023-01-28T06:23:34;5.23;;;4.73;;
14247;SDS011;7208;49.826;6.004;2023-01-28T06:26:01;5.73;;;5.00;;
14247;SDS011;7208;49.826;6.004;2023-01-28T06:28:27;5.73;;;5.13;;
14247;SDS011;7208;49.826;6.004;2023-01-28T06:30:53;5.30;;;4.80;;
14247;SDS011;7208;49.826;6.004;2023-01-28T06:33:19;6.13;;;4.87;;
14247;SDS011;7208;49.826;6.004;2023-01-28T06:35:46;5.20;;;4.70;;
14247;SDS011;7208;49.826;6.004;2023-01-28T06:38:12;6.63;;;4.13;;
14247;SDS011;7208;49.826;6.004;2023-01-28T06:40:38;5.20;;;4.37;;
14247;SDS011;7208;49.826;6.004;2023-01-28T06:43:04;5.23;;;4.17;;
14247;SDS011;7208;49.826;6.004;2023-01-28T06:45:31;4.27;;;3.87;;
14247;SDS011;7208;49.826;6.004;2023-01-28T06:47:58;4.10;;;3.70;;
14247;SDS011;7208;49.826;6.004;2023-01-28T06:50:24;4.37;;;3.77;;
14247;SDS011;7208;49.826;6.004;2023-01-28T06:52:50;3.70;;;3.40;;
14247;SDS011;7208;49.826;6.004;2023-01-28T06:55:17;4.10;;;3.70;;
14247;SDS011;7208;49.826;6.004;2023-01-28T06:57:43;3.77;;;3.47;;
14247;SDS011;7208;49.826;6.004;2023-01-28T07:00:10;4.57;;;4.17;;
14247;SDS011;7208;49.826;6.004;2023-01-28T07:02:37;3.40;;;3.10;;
14247;SDS011;7208;49.826;6.004;2023-01-28T07:05:03;3.27;;;2.97;;
14247;SDS011;7208;49.826;6.004;2023-01-28T07:07:29;3.50;;;3.20;;
14247;SDS011;7208;49.826;6.004;2023-01-28T07:09:55;4.30;;;3.90;;
14247;SDS011;7208;49.826;6.004;2023-01-28T07:12:21;3.93;;;3.60;;
14247;SDS011;7208;49.826;6.004;2023-01-28T07:14:47;3.67;;;3.37;;
14247;SDS011;7208;49.826;6.004;2023-01-28T07:17:13;4.03;;;3.63;;
14247;SDS011;7208;49.826;6.004;2023-01-28T07:19:40;3.70;;;3.40;;
14247;SDS011;7208;49.826;6.004;2023-01-28T07:22:06;4.50;;;4.10;;
14247;SDS011;7208;49.826;6.004;2023-01-28T07:24:32;4.50;;;4.10;;
14247;SDS011;7208;49.826;6.004;2023-01-28T07:26:58;4.27;;;3.87;;
14247;SDS011;7208;49.826;6.004;2023-01-28T07:29:24;5.03;;;4.47;;
14247;SDS011;7208;49.826;6.004;2023-01-28T07:31:50;4.20;;;3.80;;
14247;SDS011;7208;49.826;6.004;2023-01-28T07:34:16;3.93;;;3.63;;
14247;SDS011;7208;49.826;6.004;2023-01-28T07:36:42;4.33;;;3.70;;
14247;SDS011;7208;49.826;6.004;2023-01-28T07:39:08;4.13;;;3.77;;
14247;SDS011;7208;49.826;6.004;2023-01-28T07:41:34;3.83;;;3.50;;
14247;SDS011;7208;49.826;6.004;2023-01-28T07:44:00;3.93;;;3.60;;
14247;SDS011;7208;49.826;6.004;2023-01-28T07:46:27;3.67;;;3.37;;
14247;SDS011;7208;49.826;6.004;2023-01-28T07:48:53;3.73;;;3.40;;
14247;SDS011;7208;49.826;6.004;2023-01-28T07:51:19;4.03;;;3.70;;
14247;SDS011;7208;49.826;6.004;2023-01-28T07:53:45;4.37;;;3.83;;
14247;SDS011;7208;49.826;6.004;2023-01-28T07:56:11;3.53;;;3.23;;
14247;SDS011;7208;49.826;6.004;2023-01-28T07:58:37;2.87;;;2.67;;
14247;SDS011;7208;49.826;6.004;2023-01-28T08:01:03;3.50;;;3.20;;
14247;SDS011;7208;49.826;6.004;2023-01-28T08:03:29;3.17;;;2.87;;
14247;SDS011;7208;49.826;6.004;2023-01-28T08:05:55;3.13;;;2.83;;
14247;SDS011;7208;49.826;6.004;2023-01-28T08:08:22;2.77;;;2.57;;
14247;SDS011;7208;49.826;6.004;2023-01-28T08:10:48;3.73;;;3.33;;
14247;SDS011;7208;49.826;6.004;2023-01-28T08:13:14;3.50;;;3.20;;
14247;SDS011;7208;49.826;6.004;2023-01-28T08:15:41;3.93;;;3.53;;
14247;SDS011;7208;49.826;6.004;2023-01-28T08:18:07;3.30;;;3.10;;
14247;SDS011;7208;49.826;6.004;2023-01-28T08:20:34;2.93;;;2.73;;
14247;SDS011;7208;49.826;6.004;2023-01-28T08:23:07;3.43;;;3.13;;
14247;SDS011;7208;49.826;6.004;2023-01-28T08:25:33;3.40;;;3.10;;
14247;SDS011;7208;49.826;6.004;2023-01-28T08:27:59;2.63;;;2.43;;
14247;SDS011;7208;49.826;6.004;2023-01-28T08:30:26;3.03;;;2.73;;
14247;SDS011;7208;49.826;6.004;2023-01-28T08:32:54;3.03;;;2.77;;
14247;SDS011;7208;49.826;6.004;2023-01-28T08:35:21;2.90;;;2.70;;
14247;SDS011;7208;49.826;6.004;2023-01-28T08:37:47;3.33;;;3.03;;
14247;SDS011;7208;49.826;6.004;2023-01-28T08:40:13;3.20;;;3.00;;
14247;SDS011;7208;49.826;6.004;2023-01-28T08:42:39;3.33;;;3.03;;
14247;SDS011;7208;49.826;6.004;2023-01-28T08:45:05;3.03;;;2.83;;
14247;SDS011;7208;49.826;6.004;2023-01-28T08:47:31;3.07;;;2.77;;
14247;SDS011;7208;49.826;6.004;2023-01-28T08:49:57;4.00;;;3.60;;
14247;SDS011;7208;49.826;6.004;2023-01-28T08:52:23;3.50;;;3.20;;
14247;SDS011;7208;49.826;6.004;2023-01-28T08:54:49;3.23;;;2.93;;
14247;SDS011;7208;49.826;6.004;2023-01-28T08:57:15;4.23;;;3.00;;
14247;SDS011;7208;49.826;6.004;2023-01-28T08:59:44;3.90;;;3.13;;
14247;SDS011;7208;49.826;6.004;2023-01-28T09:02:12;4.97;;;4.43;;
14247;SDS011;7208;49.826;6.004;2023-01-28T09:04:39;4.90;;;4.40;;
14247;SDS011;7208;49.826;6.004;2023-01-28T09:07:06;3.90;;;3.50;;
14247;SDS011;7208;49.826;6.004;2023-01-28T09:09:32;3.67;;;3.40;;
14247;SDS011;7208;49.826;6.004;2023-01-28T09:11:58;3.57;;;3.27;;
14247;SDS011;7208;49.826;6.004;2023-01-28T09:14:24;5.27;;;3.77;;
14247;SDS011;7208;49.826;6.004;2023-01-28T09:16:50;4.53;;;3.70;;
14247;SDS011;7208;49.826;6.004;2023-01-28T09:19:16;3.87;;;3.57;;
14247;SDS011;7208;49.826;6.004;2023-01-28T09:21:42;3.10;;;2.83;;
14247;SDS011;7208;49.826;6.004;2023-01-28T09:24:11;4.43;;;4.07;;
14247;SDS011;7208;49.826;6.004;2023-01-28T09:26:37;4.20;;;3.80;;
14247;SDS011;7208;49.826;6.004;2023-01-28T09:29:03;3.93;;;3.17;;
14247;SDS011;7208;49.826;6.004;2023-01-28T09:31:29;4.17;;;3.87;;
14247;SDS011;7208;49.826;6.004;2023-01-28T09:33:55;3.83;;;3.53;;
14247;SDS011;7208;49.826;6.004;2023-01-28T09:36:21;4.40;;;3.50;;
14247;SDS011;7208;49.826;6.004;2023-01-28T09:38:47;4.38;;;4.07;;
14247;SDS011;7208;49.826;6.004;2023-01-28T09:46:50;3.60;;;3.30;;
14247;SDS011;7208;49.826;6.004;2023-01-28T09:49:18;4.60;;;4.20;;
14247;SDS011;7208;49.826;6.004;2023-01-28T09:51:50;3.83;;;3.17;;
14247;SDS011;7208;49.826;6.004;2023-01-28T09:56:46;4.57;;;4.17;;
14247;SDS011;7208;49.826;6.004;2023-01-28T09:59:18;4.00;;;3.70;;
14247;SDS011;7208;49.826;6.004;2023-01-28T10:02:34;4.17;;;3.50;;
14247;SDS011;7208;49.826;6.004;2023-01-28T10:09:34;4.60;;;4.23;;
14247;SDS011;7208;49.826;6.004;2023-01-28T10:17:33;3.00;;;2.70;;
14247;SDS011;7208;49.826;6.004;2023-01-28T10:22:29;4.87;;;3.60;;
14247;SDS011;7208;49.826;6.004;2023-01-28T10:24:57;3.17;;;2.97;;
14247;SDS011;7208;49.826;6.004;2023-01-28T10:27:31;3.00;;;2.80;;
14247;SDS011;7208;49.826;6.004;2023-01-28T10:30:08;4.60;;;4.03;;
14247;SDS011;7208;49.826;6.004;2023-01-28T10:32:40;3.03;;;2.83;;
14247;SDS011;7208;49.826;6.004;2023-01-28T10:35:08;4.00;;;3.70;;
14247;SDS011;7208;49.826;6.004;2023-01-28T10:37:34;7.77;;;6.90;;
14247;SDS011;7208;49.826;6.004;2023-01-28T10:40:02;4.43;;;3.77;;
14247;SDS011;7208;49.826;6.004;2023-01-28T10:42:30;3.73;;;3.43;;
14247;SDS011;7208;49.826;6.004;2023-01-28T10:44:56;3.83;;;3.53;;
14247;SDS011;7208;49.826;6.004;2023-01-28T10:47:28;4.33;;;4.03;;
14247;SDS011;7208;49.826;6.004;2023-01-28T10:49:55;3.83;;;3.53;;
14247;SDS011;7208;49.826;6.004;2023-01-28T10:52:23;3.93;;;3.37;;
14247;SDS011;7208;49.826;6.004;2023-01-28T10:55:03;4.00;;;3.70;;
14247;SDS011;7208;49.826;6.004;2023-01-28T10:57:29;3.73;;;3.33;;
14247;SDS011;7208;49.826;6.004;2023-01-28T11:00:07;3.30;;;3.10;;
14247;SDS011;7208;49.826;6.004;2023-01-28T11:02:34;3.17;;;2.93;;
14247;SDS011;7208;49.826;6.004;2023-01-28T11:07:27;3.10;;;2.80;;
14247;SDS011;7208;49.826;6.004;2023-01-28T11:09:53;2.70;;;2.50;;
14247;SDS011;7208;49.826;6.004;2023-01-28T11:12:23;2.87;;;2.67;;
14247;SDS011;7208;49.826;6.004;2023-01-28T11:14:54;3.60;;;3.30;;
14247;SDS011;7208;49.826;6.004;2023-01-28T11:17:21;3.30;;;3.10;;
14247;SDS011;7208;49.826;6.004;2023-01-28T11:19:49;3.63;;;3.35;;
14247;SDS011;7208;49.826;6.004;2023-01-28T11:22:23;3.47;;;3.17;;
14247;SDS011;7208;49.826;6.004;2023-01-28T11:24:52;2.90;;;2.70;;
14247;SDS011;7208;49.826;6.004;2023-01-28T11:27:18;3.27;;;2.97;;
14247;SDS011;7208;49.826;6.004;2023-01-28T11:29:45;3.90;;;3.53;;
14247;SDS011;7208;49.826;6.004;2023-01-28T11:32:18;3.50;;;3.20;;
14247;SDS011;7208;49.826;6.004;2023-01-28T11:34:52;3.70;;;3.40;;
14247;SDS011;7208;49.826;6.004;2023-01-28T11:37:19;3.07;;;2.77;;
14247;SDS011;7208;49.826;6.004;2023-01-28T11:39:46;2.73;;;2.53;;
14247;SDS011;7208;49.826;6.004;2023-01-28T11:42:17;5.97;;;4.33;;
14247;SDS011;7208;49.826;6.004;2023-01-28T11:44:43;3.37;;;3.07;;
14247;SDS011;7208;49.826;6.004;2023-01-28T11:49:59;2.57;;;2.37;;
14247;SDS011;7208;49.826;6.004;2023-01-28T11:57:44;3.13;;;2.83;;
14247;SDS011;7208;49.826;6.004;2023-01-28T12:00:27;3.00;;;2.80;;
14247;SDS011;7208;49.826;6.004;2023-01-28T12:08:11;3.10;;;2.80;;
14247;SDS011;7208;49.826;6.004;2023-01-28T12:18:15;4.60;;;3.67;;
14247;SDS011;7208;49.826;6.004;2023-01-28T12:35:48;4.23;;;3.93;;
14247;SDS011;7208;49.826;6.004;2023-01-28T12:38:20;4.07;;;3.77;;
14247;SDS011;7208;49.826;6.004;2023-01-28T12:40:50;3.97;;;3.67;;
14247;SDS011;7208;49.826;6.004;2023-01-28T12:45:59;5.53;;;3.43;;
14247;SDS011;7208;49.826;6.004;2023-01-28T12:48:35;4.27;;;3.97;;
14247;SDS011;7208;49.826;6.004;2023-01-28T12:51:09;3.57;;;2.87;;
14247;SDS011;7208;49.826;6.004;2023-01-28T12:56:13;3.50;;;3.23;;
14247;SDS011;7208;49.826;6.004;2023-01-28T12:58:57;3.87;;;3.47;;
14247;SDS011;7208;49.826;6.004;2023-01-28T13:01:28;4.07;;;3.67;;
14247;SDS011;7208;49.826;6.004;2023-01-28T13:04:02;4.13;;;3.50;;
14247;SDS011;7208;49.826;6.004;2023-01-28T13:06:46;4.30;;;3.90;;
14247;SDS011;7208;49.826;6.004;2023-01-28T13:09:18;4.70;;;4.27;;
14247;SDS011;7208;49.826;6.004;2023-01-28T13:11:45;3.93;;;3.63;;
14247;SDS011;7208;49.826;6.004;2023-01-28T13:14:13;3.80;;;3.50;;
14247;SDS011;7208;49.826;6.004;2023-01-28T13:16:39;4.47;;;3.97;;
14247;SDS011;7208;49.826;6.004;2023-01-28T13:19:07;5.23;;;4.73;;
14247;SDS011;7208;49.826;6.004;2023-01-28T13:21:34;6.57;;;3.83;;
14247;SDS011;7208;49.826;6.004;2023-01-28T13:26:36;5.27;;;4.30;;
14247;SDS011;7208;49.826;6.004;2023-01-28T13:31:38;5.83;;;5.20;;
14247;SDS011;7208;49.826;6.004;2023-01-28T13:34:06;5.93;;;4.63;;
14247;SDS011;7208;49.826;6.004;2023-01-28T13:36:33;4.90;;;4.40;;
14247;SDS011;7208;49.826;6.004;2023-01-28T13:39:06;6.63;;;5.70;;
14247;SDS011;7208;49.826;6.004;2023-01-28T13:41:46;5.73;;;5.23;;
14247;SDS011;7208;49.826;6.004;2023-01-28T13:46:51;7.10;;;6.40;;
14247;SDS011;7208;49.826;6.004;2023-01-28T13:49:19;5.90;;;5.30;;
14247;SDS011;7208;49.826;6.004;2023-01-28T13:51:52;6.60;;;5.57;;
14247;SDS011;7208;49.826;6.004;2023-01-28T13:54:21;5.97;;;5.10;;
14247;SDS011;7208;49.826;6.004;2023-01-28T14:15:18;7.40;;;6.70;;
14247;SDS011;7208;49.826;6.004;2023-01-28T14:17:51;7.43;;;6.73;;
14247;SDS011;7208;49.826;6.004;2023-01-28T14:23:13;6.37;;;5.77;;
14247;SDS011;7208;49.826;6.004;2023-01-28T14:26:00;6.30;;;5.80;;
14247;SDS011;7208;49.826;6.004;2023-01-28T14:31:05;7.00;;;6.30;;
14247;SDS011;7208;49.826;6.004;2023-01-28T14:33:33;6.23;;;5.63;;
14247;SDS011;7208;49.826;6.004;2023-01-28T14:36:00;8.67;;;6.03;;
14247;SDS011;7208;49.826;6.004;2023-01-28T14:38:26;7.10;;;6.40;;
14247;SDS011;7208;49.826;6.004;2023-01-28T14:40:53;7.83;;;6.40;;
14247;SDS011;7208;49.826;6.004;2023-01-28T14:43:21;6.40;;;5.53;;
14247;SDS011;7208;49.826;6.004;2023-01-28T14:48:32;6.37;;;5.70;;
14247;SDS011;7208;49.826;6.004;2023-01-28T14:56:08;8.57;;;7.03;;
14247;SDS011;7208;49.826;6.004;2023-01-28T14:58:39;7.30;;;6.57;;
14247;SDS011;7208;49.826;6.004;2023-01-28T15:01:16;6.87;;;6.20;;
14247;SDS011;7208;49.826;6.004;2023-01-28T15:03:44;6.33;;;5.47;;
14247;SDS011;7208;49.826;6.004;2023-01-28T15:08:36;6.43;;;5.63;;
14247;SDS011;7208;49.826;6.004;2023-01-28T15:11:03;7.47;;;6.67;;
14247;SDS011;7208;49.826;6.004;2023-01-28T15:13:41;12.90;;;6.47;;
14247;SDS011;7208;49.826;6.004;2023-01-28T15:16:13;6.80;;;5.80;;
14247;SDS011;7208;49.826;6.004;2023-01-28T15:18:41;5.60;;;5.10;;
14247;SDS011;7208;49.826;6.004;2023-01-28T15:21:08;5.70;;;5.17;;
14247;SDS011;7208;49.826;6.004;2023-01-28T15:23:38;6.60;;;5.87;;
14247;SDS011;7208;49.826;6.004;2023-01-28T15:26:06;5.87;;;5.33;;
14247;SDS011;7208;49.826;6.004;2023-01-28T15:28:33;6.77;;;5.87;;
14247;SDS011;7208;49.826;6.004;2023-01-28T15:31:00;7.93;;;7.17;;
14247;SDS011;7208;49.826;6.004;2023-01-28T15:33:26;7.90;;;7.10;;
14247;SDS011;7208;49.826;6.004;2023-01-28T15:35:53;7.67;;;6.87;;
14247;SDS011;7208;49.826;6.004;2023-01-28T15:38:20;7.97;;;6.37;;
14247;SDS011;7208;49.826;6.004;2023-01-28T15:40:47;7.70;;;7.00;;
14247;SDS011;7208;49.826;6.004;2023-01-28T15:43:23;5.90;;;5.20;;
14247;SDS011;7208;49.826;6.004;2023-01-28T15:45:51;6.83;;;6.23;;
14247;SDS011;7208;49.826;6.004;2023-01-28T15:48:19;8.13;;;6.07;;
14247;SDS011;7208;49.826;6.004;2023-01-28T15:50:45;7.17;;;6.33;;
14247;SDS011;7208;49.826;6.004;2023-01-28T15:53:12;9.83;;;6.20;;
14247;SDS011;7208;49.826;6.004;2023-01-28T15:55:40;8.13;;;6.70;;
14247;SDS011;7208;49.826;6.004;2023-01-28T15:58:20;5.53;;;4.97;;
14247;SDS011;7208;49.826;6.004;2023-01-28T16:00:50;6.90;;;6.20;;
14247;SDS011;7208;49.826;6.004;2023-01-28T16:03:26;8.03;;;7.23;;
14247;SDS011;7208;49.826;6.004;2023-01-28T16:05:57;11.13;;;8.80;;
14247;SDS011;7208;49.826;6.004;2023-01-28T16:08:28;29.80;;;16.70;;
14247;SDS011;7208;49.826;6.004;2023-01-28T16:10:58;12.70;;;8.33;;
14247;SDS011;7208;49.826;6.004;2023-01-28T16:13:26;12.17;;;9.20;;
14247;SDS011;7208;49.826;6.004;2023-01-28T16:15:53;9.03;;;7.27;;
14247;SDS011;7208;49.826;6.004;2023-01-28T16:18:39;20.57;;;13.00;;
14247;SDS011;7208;49.826;6.004;2023-01-28T16:21:07;9.40;;;8.33;;
14247;SDS011;7208;49.826;6.004;2023-01-28T16:23:34;20.00;;;12.97;;
14247;SDS011;7208;49.826;6.004;2023-01-28T16:26:01;15.37;;;9.83;;
14247;SDS011;7208;49.826;6.004;2023-01-28T16:28:28;11.73;;;9.10;;
14247;SDS011;7208;49.826;6.004;2023-01-28T16:30:55;9.07;;;6.73;;
14247;SDS011;7208;49.826;6.004;2023-01-28T16:33:21;11.03;;;8.57;;
14247;SDS011;7208;49.826;6.004;2023-01-28T16:35:48;13.10;;;8.27;;
14247;SDS011;7208;49.826;6.004;2023-01-28T16:38:14;11.07;;;7.90;;
14247;SDS011;7208;49.826;6.004;2023-01-28T16:40:43;8.17;;;7.17;;
14247;SDS011;7208;49.826;6.004;2023-01-28T16:43:10;7.60;;;6.90;;
14247;SDS011;7208;49.826;6.004;2023-01-28T16:45:36;8.70;;;6.83;;
14247;SDS011;7208;49.826;6.004;2023-01-28T16:48:02;8.63;;;7.20;;
14247;SDS011;7208;49.826;6.004;2023-01-28T16:50:28;8.03;;;6.73;;
14247;SDS011;7208;49.826;6.004;2023-01-28T16:52:56;8.67;;;7.53;;
14247;SDS011;7208;49.826;6.004;2023-01-28T16:55:22;7.57;;;6.87;;
14247;SDS011;7208;49.826;6.004;2023-01-28T16:57:49;8.00;;;7.27;;
14247;SDS011;7208;49.826;6.004;2023-01-28T17:00:20;10.43;;;7.93;;
14247;SDS011;7208;49.826;6.004;2023-01-28T17:02:47;9.27;;;7.37;;
14247;SDS011;7208;49.826;6.004;2023-01-28T17:05:14;8.37;;;6.87;;
14247;SDS011;7208;49.826;6.004;2023-01-28T17:07:40;7.27;;;6.57;;
14247;SDS011;7208;49.826;6.004;2023-01-28T17:10:06;8.30;;;6.97;;
14247;SDS011;7208;49.826;6.004;2023-01-28T17:12:33;8.17;;;7.20;;
14247;SDS011;7208;49.826;6.004;2023-01-28T17:14:59;13.90;;;12.70;;
14247;SDS011;7208;49.826;6.004;2023-01-28T17:17:25;10.47;;;8.77;;